Time;durP1;ratioP1;P1;durP2;ratioP2;P2;SDS_P1;SDS_P2;PMS_P1;PMS_P2;Temp;Humidity;BMP_temperature;BMP_pressure;BME280_temperature;BME280_humidity;BME280_pressure;Samples;Min_cycle;Max_cycle;Signal;HPM_P1;HPM_P2
2022/01/01 00:01:28;;;;;;;330.48;258.00;;;;;;;6.42;72.66;99896.41;5013082;28;20022;-83
2022/01/01 00:03:53;;;;;;;324.17;243.98;;;;;;;6.36;72.78;99894.34;5012794;28;20026;-84
2022/01/01 00:06:19;;;;;;;320.13;237.40;;;;;;;5.90;73.28;99813.88;5012708;28;20029;-84
2022/01/01 00:08:44;;;;;;;297.27;226.15;;;;;;;5.58;73.03;99770.47;5012880;28;20030;-84
2022/01/01 00:11:09;;;;;;;289.50;222.25;;;;;;;5.88;72.93;99815.75;5012866;28;20014;-85
2022/01/01 00:13:35;;;;;;;282.58;210.55;;;;;;;6.63;72.79;99941.63;5012363;28;20022;-85
2022/01/01 00:16:00;;;;;;;263.42;200.23;;;;;;;6.26;73.04;99881.25;5012355;28;20398;-84
2022/01/01 00:18:26;;;;;;;313.88;236.32;;;;;;;6.65;72.78;99938.84;5012592;28;20026;-83
2022/01/01 00:20:51;;;;;;;315.48;234.18;;;;;;;6.62;72.72;99944.38;5012473;28;20021;-83
2022/01/01 00:23:16;;;;;;;301.83;226.60;;;;;;;6.42;72.63;99898.19;5012555;28;20515;-82
2022/01/01 00:25:42;;;;;;;268.02;203.77;;;;;;;5.38;72.98;99772.28;5012699;28;20030;-83
2022/01/01 00:28:07;;;;;;;264.08;194.40;;;;;;;6.60;72.52;99941.06;5012840;28;20029;-83
2022/01/01 00:30:33;;;;;;;247.02;185.73;;;;;;;6.37;72.55;99882.88;5012385;28;20438;-83
2022/01/01 00:32:58;;;;;;;240.50;184.57;;;;;;;6.57;72.97;99918.56;5012256;28;20057;-82
2022/01/01 00:35:24;;;;;;;236.00;176.52;;;;;;;6.24;72.90;99861.41;5012497;28;20506;-84
2022/01/01 00:37:49;;;;;;;209.90;153.02;;;;;;;6.40;73.10;99892.25;5012583;28;20088;-82
2022/01/01 00:40:15;;;;;;;209.02;152.98;;;;;;;6.21;72.91;99869.53;5012564;28;20029;-84
2022/01/01 00:42:40;;;;;;;205.68;155.35;;;;;;;6.08;72.82;99842.81;5012220;28;20022;-82
2022/01/01 00:45:06;;;;;;;208.07;152.60;;;;;;;6.48;72.81;99922.06;5012485;28;20029;-84
2022/01/01 00:47:31;;;;;;;200.30;144.55;;;;;;;5.67;72.81;99781.88;5012256;28;20430;-85
2022/01/01 00:49:56;;;;;;;200.30;147.73;;;;;;;6.47;73.40;99911.72;5012198;28;20388;-82
2022/01/01 00:52:22;;;;;;;199.73;143.50;;;;;;;5.46;73.11;99744.56;5012162;28;20026;-84
2022/01/01 00:54:47;;;;;;;207.13;151.57;;;;;;;6.38;73.11;99895.03;5012122;28;20032;-81
2022/01/01 00:57:13;;;;;;;181.73;135.80;;;;;;;5.80;72.38;99789.44;5012016;28;20041;-84
2022/01/01 00:59:38;;;;;;;201.25;149.00;;;;;;;5.99;73.21;99818.28;5011992;28;20080;-83
2022/01/01 01:02:04;;;;;;;195.15;143.48;;;;;;;6.36;72.83;99876.81;5011904;28;20018;-84
2022/01/01 01:04:29;;;;;;;214.88;160.18;;;;;;;4.97;72.31;99641.72;5011872;28;20026;-83
2022/01/01 01:06:55;;;;;;;244.60;181.98;;;;;;;6.48;72.76;99916.81;5011904;28;20438;-83
2022/01/01 01:09:21;;;;;;;270.05;194.60;;;;;;;5.64;72.63;99753.34;5011825;28;20105;-84
2022/01/01 01:11:48;;;;;;;260.98;190.43;;;;;;;6.12;72.48;99828.47;5011840;28;20464;-84
2022/01/01 01:14:24;;;;;;;237.73;181.20;;;;;;;5.80;71.99;99784.19;5011850;28;20029;-81
2022/01/01 01:16:52;;;;;;;237.52;178.05;;;;;;;6.20;72.27;99841.69;5011682;28;20021;-81
2022/01/01 01:19:17;;;;;;;217.05;155.82;;;;;;;6.33;71.96;99874.47;5011573;28;20119;-83
2022/01/01 01:21:44;;;;;;;218.20;159.52;;;;;;;5.98;71.94;99819.25;5011584;28;20057;-82
2022/01/01 01:24:10;;;;;;;206.88;148.52;;;;;;;6.20;72.14;99860.03;5011761;28;20021;-85
2022/01/01 01:26:35;;;;;;;203.38;147.25;;;;;;;5.53;72.15;99751.72;5011465;28;20024;-85
2022/01/01 01:29:03;;;;;;;206.82;152.73;;;;;;;5.53;72.31;99750.91;5011768;28;20026;-82
2022/01/01 01:31:30;;;;;;;209.80;151.25;;;;;;;6.12;71.78;99857.28;5011318;28;20014;-82
2022/01/01 01:33:55;;;;;;;210.98;155.45;;;;;;;5.48;72.18;99753.13;5011452;28;20085;-84
2022/01/01 01:36:21;;;;;;;204.52;146.07;;;;;;;5.09;71.90;99730.38;5011710;28;20030;-84
2022/01/01 01:38:46;;;;;;;210.98;154.93;;;;;;;6.00;71.51;99836.50;5011648;28;20022;-84
2022/01/01 01:41:12;;;;;;;207.35;153.00;;;;;;;6.09;72.02;99836.59;5011554;28;20029;-83
2022/01/01 01:43:37;;;;;;;191.30;139.43;;;;;;;5.12;71.49;99690.03;5011581;28;20033;-80
2022/01/01 01:46:05;;;;;;;191.43;134.43;;;;;;;5.94;71.72;99833.56;5011218;28;20080;-82
2022/01/01 01:48:36;;;;;;;201.35;145.52;;;;;;;5.60;71.84;99799.97;5011342;28;20399;-83
2022/01/01 01:51:02;;;;;;;177.23;132.93;;;;;;;5.87;72.21;99827.22;5011479;28;20415;-84
2022/01/01 01:53:28;;;;;;;193.18;143.88;;;;;;;5.41;72.10;99753.69;4993699;28;20388;-80
2022/01/01 01:55:55;;;;;;;193.25;139.70;;;;;;;5.30;72.14;99763.47;5011315;28;20076;-80
2022/01/01 01:58:21;;;;;;;177.23;129.82;;;;;;;5.59;71.68;99779.16;5011439;28;20483;-81
2022/01/01 02:03:21;;;;;;;180.07;127.68;;;;;;;5.66;71.64;99791.53;5011897;28;20653;-82
2022/01/01 02:05:47;;;;;;;190.85;138.75;;;;;;;4.90;71.47;99661.53;5011299;28;20026;-84
2022/01/01 02:08:14;;;;;;;184.50;134.10;;;;;;;5.65;71.52;99774.16;5011345;28;20029;-83
2022/01/01 02:10:40;;;;;;;184.13;129.38;;;;;;;5.78;71.72;99812.34;5011024;28;20036;-84
2022/01/01 02:13:12;;;;;;;181.35;130.50;;;;;;;5.56;71.98;99766.34;5010960;28;20022;-81
2022/01/01 02:18:19;;;;;;;175.48;121.95;;;;;;;5.72;72.08;99798.84;5011418;28;19913;-80
2022/01/01 02:20:49;;;;;;;178.15;127.70;;;;;;;5.75;71.85;99797.72;5011147;28;20502;-81
2022/01/01 02:23:21;;;;;;;167.18;118.82;;;;;;;5.48;71.73;99743.47;5011103;28;20024;-82
2022/01/01 02:25:48;;;;;;;;;;;;;;;5.66;71.38;99794.16;5011408;28;20477;-83
2022/01/01 02:28:13;;;;;;;172.95;123.47;;;;;;;5.72;71.71;99787.53;5011024;28;19913;-81
2022/01/01 02:30:39;;;;;;;177.55;126.32;;;;;;;5.75;71.86;99790.69;4993551;28;20101;-85
2022/01/01 02:33:04;;;;;;;177.75;126.57;;;;;;;5.77;71.73;99789.72;5011174;28;20049;-83
2022/01/01 02:35:30;;;;;;;178.15;126.00;;;;;;;5.13;71.65;99738.78;5010994;28;20026;-85
2022/01/01 02:37:55;;;;;;;175.32;124.03;;;;;;;5.15;71.69;99687.13;5012760;28;20025;-82
2022/01/01 02:40:21;;;;;;;181.07;131.52;;;;;;;5.74;71.58;99791.66;5014541;28;20076;-80
2022/01/01 02:42:46;;;;;;;176.75;127.53;;;;;;;5.05;71.64;99681.91;5014516;28;20018;-83
2022/01/01 02:45:14;;;;;;;171.35;124.88;;;;;;;5.77;71.76;99787.09;5014509;28;20017;-80
2022/01/01 02:47:40;;;;;;;179.23;125.40;;;;;;;4.16;71.56;99541.81;5014341;28;20049;-81
2022/01/01 02:50:07;;;;;;;178.48;129.85;;;;;;;5.79;71.38;99780.75;5014293;28;20418;-85
2022/01/01 02:52:33;;;;;;;179.65;131.20;;;;;;;5.80;71.84;99781.59;5014309;28;20018;-80
2022/01/01 02:54:58;;;;;;;166.77;126.25;;;;;;;5.79;71.82;99779.94;5014168;28;20026;-81
2022/01/01 02:57:24;;;;;;;175.63;129.00;;;;;;;5.19;71.56;99688.50;5014504;28;20022;-85
2022/01/01 02:59:49;;;;;;;173.45;123.38;;;;;;;5.46;71.36;99729.69;5014310;28;20021;-82
2022/01/01 03:02:15;;;;;;;184.27;132.35;;;;;;;5.81;71.45;99778.81;5013938;28;20077;-82
2022/01/01 03:04:40;;;;;;;177.07;128.57;;;;;;;5.76;71.62;99778.41;5013920;28;20017;-80
2022/01/01 03:07:06;;;;;;;172.23;123.15;;;;;;;5.58;71.31;99748.69;5013777;28;20033;-82
2022/01/01 03:09:35;;;;;;;171.52;128.18;;;;;;;5.07;71.25;99666.91;5013975;28;20025;-80
2022/01/01 03:12:06;;;;;;;179.38;128.88;;;;;;;5.47;71.49;99743.59;5014043;28;20026;-81
2022/01/01 03:14:32;;;;;;;181.77;133.75;;;;;;;5.80;71.45;99771.09;5013982;28;20033;-80
2022/01/01 03:16:57;;;;;;;169.23;121.25;;;;;;;5.55;71.30;99728.00;5014196;28;20022;-82
2022/01/01 03:19:23;;;;;;;168.38;119.63;;;;;;;5.80;71.31;99777.16;5013962;28;20065;-83
2022/01/01 03:21:48;;;;;;;176.50;125.10;;;;;;;5.69;71.43;99759.81;5013699;28;20406;-84
2022/01/01 03:24:15;;;;;;;172.40;124.35;;;;;;;5.77;71.29;99769.59;5013892;28;20026;-82
2022/01/01 03:26:41;;;;;;;182.63;133.07;;;;;;;5.67;71.24;99751.28;5013898;28;20045;-82
2022/01/01 03:29:06;;;;;;;177.73;127.40;;;;;;;5.49;71.30;99725.97;5013703;28;20022;-82
2022/01/01 03:31:32;;;;;;;186.40;129.77;;;;;;;4.98;70.93;99664.28;5013607;28;20014;-81
2022/01/01 03:33:58;;;;;;;172.93;123.80;;;;;;;5.08;71.46;99686.88;5013905;28;20049;-83
2022/01/01 03:36:25;;;;;;;166.70;120.55;;;;;;;4.57;71.30;99590.41;5013624;28;20033;-81
2022/01/01 03:38:50;;;;;;;179.57;129.57;;;;;;;5.75;71.27;99795.09;5013547;28;20053;-82
2022/01/01 03:41:16;;;;;;;178.10;129.90;;;;;;;4.99;71.33;99682.47;5013548;28;20063;-83
2022/01/01 03:43:41;;;;;;;183.90;128.45;;;;;;;5.48;71.17;99763.59;5013334;28;20060;-81
2022/01/01 03:46:07;;;;;;;174.27;124.10;;;;;;;5.52;71.57;99778.88;5013193;28;20030;-82
2022/01/01 03:48:32;;;;;;;183.02;132.18;;;;;;;4.57;71.48;99613.94;4995455;28;20022;-81
2022/01/01 03:50:58;;;;;;;178.85;124.90;;;;;;;4.76;71.27;99644.47;5013290;28;20026;-82
2022/01/01 03:53:25;;;;;;;187.70;134.75;;;;;;;4.24;71.24;99565.47;5013131;28;20028;-84
2022/01/01 03:55:50;;;;;;;173.30;123.40;;;;;;;5.04;71.09;99690.72;5013115;28;20022;-82
2022/01/01 03:58:15;;;;;;;162.95;117.35;;;;;;;4.55;71.02;99615.84;5012985;28;20032;-82
2022/01/01 04:00:41;;;;;;;150.23;106.47;;;;;;;5.11;71.46;99712.75;5012928;28;20056;-82
2022/01/01 04:03:08;;;;;;;158.63;113.75;;;;;;;5.71;71.02;99817.31;5012803;28;20404;-82
2022/01/01 04:05:35;;;;;;;139.10;99.43;;;;;;;5.34;71.34;99757.00;5012724;28;20033;-82
2022/01/01 04:08:02;;;;;;;134.50;98.17;;;;;;;5.11;70.97;99688.38;5013023;28;20055;-84
2022/01/01 04:10:30;;;;;;;117.25;86.97;;;;;;;5.68;71.58;99792.22;5013153;28;20022;-82
2022/01/01 04:12:57;;;;;;;123.60;88.87;;;;;;;5.67;71.24;99780.09;5012809;28;20024;-83
2022/01/01 04:15:22;;;;;;;140.30;103.73;;;;;;;5.01;71.60;99674.47;5012728;28;20014;-80
2022/01/01 04:17:48;;;;;;;122.70;91.82;;;;;;;5.33;71.21;99721.31;5012731;28;20517;-80
2022/01/01 04:20:13;;;;;;;141.20;102.00;;;;;;;5.10;71.47;99697.19;5012585;28;20515;-81
2022/01/01 04:22:38;;;;;;;136.43;101.10;;;;;;;4.94;71.60;99661.13;5012679;28;20029;-82
2022/01/01 04:25:04;;;;;;;138.07;99.03;;;;;;;5.49;71.44;99754.75;5012629;28;20025;-82
2022/01/01 04:27:30;;;;;;;146.18;105.22;;;;;;;4.93;71.33;99680.41;5012649;28;20026;-81
2022/01/01 04:29:55;;;;;;;139.63;103.85;;;;;;;5.35;71.36;99740.31;4994914;28;20529;-80
2022/01/01 04:32:20;;;;;;;135.20;99.93;;;;;;;5.48;71.20;99767.03;5012610;28;20025;-82
2022/01/01 04:34:46;;;;;;;135.60;100.18;;;;;;;5.70;71.13;99795.53;5012490;28;20022;-80
2022/01/01 04:37:13;;;;;;;142.82;107.65;;;;;;;5.69;71.05;99814.00;5012457;28;20026;-84
2022/01/01 04:39:39;;;;;;;138.95;101.50;;;;;;;4.90;71.50;99654.53;5012629;28;20089;-82
2022/01/01 04:42:04;;;;;;;163.68;120.60;;;;;;;5.64;71.66;99774.31;5012291;28;20025;-83
2022/01/01 04:44:30;;;;;;;150.85;107.82;;;;;;;5.46;71.62;99740.16;5012324;28;20026;-82
2022/01/01 04:46:55;;;;;;;146.00;107.35;;;;;;;5.65;71.69;99789.06;5012319;28;20418;-83
2022/01/01 04:49:22;;;;;;;148.68;111.65;;;;;;;5.45;71.22;99753.41;5012102;28;20057;-80
2022/01/01 04:51:49;;;;;;;147.13;110.78;;;;;;;5.67;71.34;99782.72;5012284;28;20029;-82
2022/01/01 04:54:16;;;;;;;152.43;108.43;;;;;;;4.13;71.18;99539.47;5012330;28;20632;-82
2022/01/01 04:56:47;;;;;;;144.90;107.05;;;;;;;5.62;71.14;99795.41;5011955;28;20525;-84
2022/01/01 04:59:14;;;;;;;142.00;103.50;;;;;;;5.60;71.64;99788.66;4994702;28;20033;-83
2022/01/01 05:01:40;;;;;;;135.63;102.38;;;;;;;4.62;71.21;99643.09;5011700;28;20069;-83
2022/01/01 05:04:09;;;;;;;144.95;106.10;;;;;;;5.62;71.32;99786.72;5011907;28;20049;-82
2022/01/01 05:06:34;;;;;;;128.60;94.97;;;;;;;5.48;71.36;99756.56;5011872;28;20026;-83
2022/01/01 05:09:00;;;;;;;141.20;104.93;;;;;;;5.63;71.53;99778.72;5011799;28;20021;-82
2022/01/01 05:11:26;;;;;;;142.45;107.45;;;;;;;5.24;71.38;99740.47;5011665;28;20037;-81
2022/01/01 05:13:52;;;;;;;145.30;108.75;;;;;;;4.48;71.16;99591.22;5011716;28;20025;-81
2022/01/01 05:16:19;;;;;;;149.63;108.57;;;;;;;5.62;71.50;99782.31;5012024;28;20026;-81
2022/01/01 05:18:45;;;;;;;144.93;104.70;;;;;;;5.57;71.24;99784.53;4994081;28;20030;-82
2022/01/01 05:21:11;;;;;;;138.25;104.30;;;;;;;4.26;71.42;99581.84;5011900;28;20036;-81
2022/01/01 05:23:37;;;;;;;139.60;106.07;;;;;;;5.55;71.29;99785.63;5011941;28;20033;-81
2022/01/01 05:26:03;;;;;;;140.35;101.93;;;;;;;4.93;71.33;99685.63;5011714;28;20087;-81
2022/01/01 05:28:29;;;;;;;142.77;110.63;;;;;;;5.03;71.20;99696.91;5011820;28;20040;-81
2022/01/01 05:30:54;;;;;;;139.13;102.93;;;;;;;5.57;71.22;99789.75;5011500;28;20025;-80
2022/01/01 05:33:19;;;;;;;130.82;93.90;;;;;;;4.80;71.27;99669.41;5011407;28;20034;-83
2022/01/01 05:35:45;;;;;;;149.85;111.55;;;;;;;5.20;71.21;99744.28;5011575;28;20068;-81
2022/01/01 05:38:10;;;;;;;129.13;93.68;;;;;;;5.06;71.68;99719.38;5011672;28;20065;-80
2022/01/01 05:40:36;;;;;;;121.35;86.72;;;;;;;4.48;71.50;99643.50;5011559;28;20038;-81
2022/01/01 05:43:01;;;;;;;125.50;92.93;;;;;;;5.08;71.47;99743.63;5011415;28;20049;-84
2022/01/01 05:45:27;;;;;;;120.25;90.65;;;;;;;5.48;71.79;99797.63;4994009;28;20478;-82
2022/01/01 05:47:52;;;;;;;111.60;81.47;;;;;;;5.23;71.59;99759.75;5011582;28;20101;-81
2022/01/01 05:50:20;;;;;;;101.10;74.03;;;;;;;5.48;71.96;99795.84;5011421;28;20396;-80
2022/01/01 05:52:45;;;;;;;87.90;63.05;;;;;;;4.96;71.40;99714.13;5011099;28;20057;-85
2022/01/01 05:55:11;;;;;;;92.78;66.20;;;;;;;5.25;71.94;99773.53;5011119;28;20027;-84
2022/01/01 05:57:36;;;;;;;111.97;83.83;;;;;;;4.87;71.42;99699.28;5011237;28;20022;-81
2022/01/01 06:00:06;;;;;;;102.10;72.70;;;;;;;5.22;71.70;99756.31;5011292;28;20414;-81
2022/01/01 06:02:31;;;;;;;101.40;73.95;;;;;;;5.47;71.90;99788.94;5011515;28;20133;-82
2022/01/01 06:04:57;;;;;;;115.00;85.67;;;;;;;4.75;71.87;99669.81;5011165;28;20140;-84
2022/01/01 06:07:22;;;;;;;104.93;75.43;;;;;;;4.28;71.71;99589.53;5011191;28;20417;-83
2022/01/01 06:09:49;;;;;;;100.65;71.70;;;;;;;5.34;71.81;99755.19;5011235;28;20030;-82
2022/01/01 06:12:15;;;;;;;89.85;66.75;;;;;;;5.53;71.57;99788.38;5011915;28;20061;-83
2022/01/01 06:14:40;;;;;;;87.07;64.50;;;;;;;3.89;71.22;99518.16;5015055;28;20111;-83
2022/01/01 06:17:05;;;;;;;89.70;66.50;;;;;;;5.41;71.47;99755.47;4997433;28;20124;-83
2022/01/01 06:19:31;;;;;;;90.55;66.75;;;;;;;5.20;71.52;99728.59;5015053;28;20022;-82
2022/01/01 06:21:56;;;;;;;78.85;58.63;;;;;;;5.55;71.80;99778.59;5014905;28;20033;-81
2022/01/01 06:24:22;;;;;;;76.87;55.77;;;;;;;4.84;71.40;99668.16;5015009;28;20148;-83
2022/01/01 06:26:47;;;;;;;67.53;48.65;;;;;;;4.70;71.34;99642.41;5014974;28;20104;-82
2022/01/01 06:29:12;;;;;;;67.03;50.95;;;;;;;4.67;71.73;99642.69;5014747;28;20103;-81
2022/01/01 06:31:38;;;;;;;73.65;54.08;;;;;;;5.58;71.40;99787.97;5014506;28;20025;-81
2022/01/01 06:34:03;;;;;;;72.93;51.83;;;;;;;5.15;71.33;99733.41;5014811;28;20033;-81
2022/01/01 06:36:29;;;;;;;77.18;55.20;;;;;;;5.48;71.30;99769.66;5014911;28;20026;-83
2022/01/01 06:38:54;;;;;;;82.82;59.58;;;;;;;5.38;71.51;99747.88;5014729;28;20026;-81
2022/01/01 06:41:20;;;;;;;84.28;62.83;;;;;;;5.82;71.55;99816.31;5014373;28;20065;-84
2022/01/01 06:43:45;;;;;;;86.32;60.45;;;;;;;5.15;71.32;99694.16;5014313;28;20030;-83
2022/01/01 06:46:11;;;;;;;81.27;61.67;;;;;;;4.67;71.53;99630.44;5014440;28;20542;-81
2022/01/01 06:48:36;;;;;;;89.22;65.32;;;;;;;5.35;71.00;99727.22;5014580;28;20030;-82
2022/01/01 06:51:02;;;;;;;95.78;68.50;;;;;;;5.84;71.50;99793.44;5014368;28;20022;-83
2022/01/01 06:53:28;;;;;;;86.00;61.17;;;;;;;6.08;71.17;99829.72;5014148;28;20036;-81
2022/01/01 06:55:53;;;;;;;78.00;57.90;;;;;;;5.40;71.37;99710.13;5014509;28;20034;-81
2022/01/01 06:58:19;;;;;;;93.22;71.68;;;;;;;5.35;71.06;99704.50;5014404;28;20118;-81
2022/01/01 07:00:44;;;;;;;104.22;78.13;;;;;;;5.96;71.18;99805.47;5014244;28;20404;-80
2022/01/01 07:03:09;;;;;;;141.80;98.15;;;;;;;5.68;71.45;99758.16;5014078;28;20610;-82
2022/01/01 07:05:35;;;;;;;152.55;110.55;;;;;;;5.85;71.05;99777.56;5014070;28;20032;-82
2022/01/01 07:08:00;;;;;;;129.45;92.07;;;;;;;5.81;71.33;99778.81;4996407;28;20037;-86
2022/01/01 07:10:26;;;;;;;130.40;97.30;;;;;;;6.24;71.24;99835.19;5014223;28;20033;-83
2022/01/01 07:12:51;;;;;;;142.40;107.30;;;;;;;5.67;70.72;99761.75;5013940;28;20161;-85
2022/01/01 07:15:17;;;;;;;133.10;104.88;;;;;;;6.35;70.91;99833.19;5013838;28;20029;-83
2022/01/01 07:17:43;;;;;;;125.90;95.78;;;;;;;6.38;70.98;99834.72;5013793;28;20438;-80
2022/01/01 07:20:09;;;;;;;119.30;92.25;;;;;;;4.84;70.46;99579.22;5013864;28;20033;-85
2022/01/01 07:22:41;;;;;;;126.15;98.30;;;;;;;6.43;70.32;99829.03;5013841;28;20014;-85
2022/01/01 07:25:07;;;;;;;121.38;94.03;;;;;;;5.72;71.01;99722.88;5013686;28;20451;-81
2022/01/01 07:27:33;;;;;;;140.73;107.35;;;;;;;5.64;70.76;99711.44;5013679;28;20119;-83
2022/01/01 07:29:58;;;;;;;143.93;113.32;;;;;;;6.15;71.05;99770.50;4995846;28;20029;-83
2022/01/01 07:32:24;;;;;;;131.93;100.68;;;;;;;6.27;71.12;99799.00;5013423;28;20034;-84
2022/01/01 07:34:50;;;;;;;134.70;104.22;;;;;;;5.94;70.71;99747.91;5013490;28;20049;-83
2022/01/01 07:37:15;;;;;;;122.97;93.15;;;;;;;6.08;70.68;99741.41;5013576;28;20030;-81
2022/01/01 07:39:40;;;;;;;116.97;84.10;;;;;;;6.41;71.06;99784.59;5013522;28;20041;-83
2022/01/01 07:42:06;;;;;;;115.35;84.15;;;;;;;6.37;71.01;99785.84;5013344;28;20506;-82
2022/01/01 07:44:32;;;;;;;120.53;90.05;;;;;;;5.94;70.26;99718.25;5013271;28;20029;-83
2022/01/01 07:46:57;;;;;;;131.10;91.60;;;;;;;6.14;70.42;99745.25;5013125;28;20022;-84
2022/01/01 07:49:23;;;;;;;115.93;80.18;;;;;;;6.07;71.23;99745.00;4995606;28;20437;-85
2022/01/01 07:51:48;;;;;;;93.97;69.50;;;;;;;6.46;70.90;99813.00;5013099;28;20029;-83
2022/01/01 07:54:14;;;;;;;90.15;66.80;;;;;;;6.09;71.69;99747.47;5012917;28;20487;-82
2022/01/01 07:56:39;;;;;;;95.68;71.85;;;;;;;6.42;71.56;99822.97;5013153;28;20034;-86
2022/01/01 07:59:04;;;;;;;78.13;60.28;;;;;;;6.17;71.25;99761.50;5013107;28;20030;-86
2022/01/01 08:01:30;;;;;;;95.03;71.45;;;;;;;6.08;71.12;99743.22;5012983;28;20439;-81
2022/01/01 08:04:01;;;;;;;85.03;63.47;;;;;;;6.12;71.32;99755.88;5012839;28;20101;-84
2022/01/01 08:06:27;;;;;;;77.55;58.17;;;;;;;5.58;71.77;99664.88;5013029;28;20554;-83
2022/01/01 08:08:52;;;;;;;78.18;54.58;;;;;;;6.51;71.49;99795.03;5013040;28;20109;-83
2022/01/01 08:11:17;;;;;;;110.35;70.78;;;;;;;6.62;71.18;99808.78;5012979;28;20411;-82
2022/01/01 08:13:43;;;;;;;121.43;75.15;;;;;;;6.53;72.03;99790.47;5012918;28;20109;-84
2022/01/01 08:16:09;;;;;;;144.63;83.85;;;;;;;6.32;71.81;99738.25;5012837;28;20434;-82
2022/01/01 08:18:34;;;;;;;146.43;86.43;;;;;;;5.97;71.28;99673.47;5012760;28;20041;-80
2022/01/01 08:21:00;;;;;;;148.05;81.90;;;;;;;6.26;71.03;99700.34;5013021;28;20030;-83
2022/01/01 08:23:25;;;;;;;157.38;85.85;;;;;;;6.74;71.07;99770.06;5012740;28;20030;-85
2022/01/01 08:25:51;;;;;;;155.88;91.05;;;;;;;6.62;71.37;99740.56;4995302;28;20116;-88
2022/01/01 08:28:16;;;;;;;168.45;97.68;;;;;;;6.41;71.18;99703.28;5012606;28;20022;-88
2022/01/01 08:30:41;;;;;;;142.60;81.10;;;;;;;7.01;71.34;99785.78;5012567;28;20018;-86
2022/01/01 08:33:07;;;;;;;153.02;84.80;;;;;;;5.99;71.20;99616.47;5012454;28;20109;-88
2022/01/01 08:35:34;;;;;;;150.95;87.38;;;;;;;6.92;71.54;99762.22;5011796;28;20506;-87
2022/01/01 08:38:00;;;;;;;147.63;85.30;;;;;;;7.16;70.98;99801.84;5012499;28;20025;-87
2022/01/01 08:40:27;;;;;;;135.45;79.55;;;;;;;7.22;71.60;99835.38;5012417;28;20030;-87
2022/01/01 08:42:53;;;;;;;118.55;70.95;;;;;;;7.08;71.54;99769.41;5012277;28;20026;-87
2022/01/01 08:45:18;;;;;;;139.15;87.90;;;;;;;6.28;71.64;99634.66;5012372;28;20053;-86
2022/01/01 08:47:44;;;;;;;151.75;95.35;;;;;;;6.18;71.21;99626.84;5012265;28;20026;-87
2022/01/01 08:50:10;;;;;;;144.93;90.60;;;;;;;6.96;71.12;99746.03;5012365;28;20034;-87
2022/01/01 08:52:35;;;;;;;107.00;69.30;;;;;;;7.39;71.42;99811.88;5012403;28;20062;-87
2022/01/01 08:55:01;;;;;;;109.85;71.72;;;;;;;7.16;71.69;99772.94;5012242;28;20034;-86
2022/01/01 08:57:26;;;;;;;97.63;61.50;;;;;;;7.17;71.48;99755.41;5011959;28;20091;-87
2022/01/01 08:59:53;;;;;;;104.05;66.75;;;;;;;7.56;71.08;99816.31;5012007;28;20406;-87
2022/01/01 09:02:19;;;;;;;106.80;67.60;;;;;;;7.27;71.66;99756.13;5012199;28;20033;-86
2022/01/01 09:04:45;;;;;;;108.18;71.15;;;;;;;6.65;71.51;99648.44;5012082;28;20036;-87
2022/01/01 09:07:12;;;;;;;108.95;71.47;;;;;;;7.82;71.19;99863.66;5012043;28;20030;-87
2022/01/01 09:09:37;;;;;;;111.68;72.05;;;;;;;6.87;71.25;99659.47;5012064;28;20121;-87
2022/01/01 09:12:03;;;;;;;114.20;77.40;;;;;;;7.62;70.62;99761.34;5011768;28;20025;-87
2022/01/01 09:14:29;;;;;;;113.20;81.32;;;;;;;8.05;71.11;99820.13;5011807;28;20046;-86
2022/01/01 09:16:54;;;;;;;109.65;75.53;;;;;;;8.15;70.46;99828.72;5011669;28;20516;-87
2022/01/01 09:19:20;;;;;;;106.50;72.72;;;;;;;7.41;70.10;99686.47;5011730;28;20026;-85
2022/01/01 09:21:46;;;;;;;111.63;75.35;;;;;;;8.32;70.70;99813.88;5011664;28;20033;-85
2022/01/01 09:24:11;;;;;;;118.35;86.63;;;;;;;7.70;70.53;99697.50;5011787;28;20032;-82
2022/01/01 09:26:37;;;;;;;119.28;89.88;;;;;;;7.99;70.57;99736.59;5011689;28;20040;-82
2022/01/01 09:29:04;;;;;;;124.32;91.45;;;;;;;7.23;70.05;99607.72;5011636;28;20083;-83
2022/01/01 09:31:30;;;;;;;120.60;90.38;;;;;;;8.29;70.19;99772.94;5011469;28;20032;-82
2022/01/01 09:33:55;;;;;;;130.32;99.00;;;;;;;7.91;70.16;99699.75;5011762;28;20022;-81
2022/01/01 09:36:21;;;;;;;129.43;100.70;;;;;;;8.56;70.44;99802.69;5011649;28;20026;-80
2022/01/01 09:38:47;;;;;;;124.10;95.03;;;;;;;7.53;70.28;99638.78;5011601;28;20500;-80
2022/01/01 09:41:14;;;;;;;128.63;95.40;;;;;;;7.52;70.47;99615.31;5011378;28;20026;-81
2022/01/01 09:43:40;;;;;;;129.13;95.40;;;;;;;7.75;70.42;99652.38;5011199;28;20113;-81
2022/01/01 09:46:08;;;;;;;123.32;97.28;;;;;;;8.68;70.37;99797.94;5011614;28;20469;-81
2022/01/01 09:48:34;;;;;;;135.60;104.45;;;;;;;8.62;70.36;99773.09;5015324;28;20030;-82
2022/01/01 09:51:02;;;;;;;135.40;106.07;;;;;;;8.80;70.24;99792.22;5015531;28;20026;-82
2022/01/01 09:53:29;;;;;;;119.15;92.38;;;;;;;8.02;69.90;99659.22;5014204;28;20076;-80
2022/01/01 09:55:56;;;;;;;131.10;101.15;;;;;;;8.51;69.91;99726.84;5015392;28;20030;-80
2022/01/01 09:58:30;;;;;;;125.70;97.63;;;;;;;8.86;70.03;99762.63;4997837;28;20029;-82
2022/01/01 10:00:56;;;;;;;123.40;99.57;;;;;;;8.59;70.17;99726.03;5015577;28;20033;-81
2022/01/01 10:03:44;;;;;;;122.40;96.95;;;;;;;8.95;69.78;99757.41;4998037;28;20022;-81
2022/01/01 10:06:16;;;;;;;123.13;94.55;;;;;;;8.54;70.28;99679.16;5015285;28;20109;-81
2022/01/01 10:08:47;;;;;;;120.45;95.78;;;;;;;8.89;70.17;99725.44;5015387;28;20404;-82
2022/01/01 10:11:18;;;;;;;118.75;94.13;;;;;;;8.59;70.23;99671.59;5015226;28;20064;-81
2022/01/01 10:13:44;;;;;;;119.40;94.13;;;;;;;9.36;70.01;99772.25;5015151;28;20026;-81
2022/01/01 10:16:11;;;;;;;110.30;88.90;;;;;;;8.40;69.80;99626.34;5015130;28;20032;-81
2022/01/01 10:18:39;;;;;;;99.40;79.43;;;;;;;8.94;70.11;99685.47;5014889;28;20087;-82
2022/01/01 10:21:14;;;;;;;93.22;74.00;;;;;;;9.00;70.00;99678.72;5014921;28;20082;-81
2022/01/01 10:23:42;;;;;;;84.47;69.50;;;;;;;9.15;70.33;99693.72;5015001;28;20088;-81
2022/01/01 10:29:23;;;;;;;72.55;56.83;;;;;;;9.38;69.95;99729.94;5015113;28;20045;-81
2022/01/01 10:32:03;;;;;;;58.45;45.70;;;;;;;9.67;70.52;99774.25;5014654;28;20112;-82
2022/01/01 10:34:36;;;;;;;54.28;42.13;;;;;;;9.70;70.51;99755.47;5014746;28;20022;-81
2022/01/01 10:37:05;;;;;;;52.13;41.15;;;;;;;9.38;70.55;99701.75;5014888;28;20053;-81
2022/01/01 10:39:31;;;;;;;48.58;40.00;;;;;;;9.82;70.73;99751.47;5014694;28;20026;-81
2022/01/01 10:42:03;;;;;;;45.45;37.50;;;;;;;9.86;70.55;99760.69;5014594;28;20483;-81
2022/01/01 10:44:39;;;;;;;44.30;37.17;;;;;;;9.90;70.65;99756.72;5014669;28;20510;-81
2022/01/01 10:47:35;;;;;;;46.38;40.45;;;;;;;9.77;70.88;99730.06;5014591;28;20045;-80
2022/01/01 10:52:43;;;;;;;45.22;36.20;;;;;;;10.07;70.53;99784.72;5014426;28;20510;-81
2022/01/01 10:55:09;;;;;;;40.25;33.88;;;;;;;8.85;70.37;99573.22;5014322;28;20026;-81
2022/01/01 10:57:35;;;;;;;37.00;30.15;;;;;;;10.16;70.69;99761.78;5014434;28;20479;-81
2022/01/01 11:00:20;;;;;;;31.80;27.88;;;;;;;10.23;71.16;99752.22;5014086;28;20556;-81
2022/01/01 11:02:54;;;;;;;32.63;26.35;;;;;;;10.27;71.11;99745.59;5014356;28;20033;-81
2022/01/01 11:05:30;;;;;;;40.95;33.88;;;;;;;10.36;70.63;99759.59;5014201;28;20096;-81
2022/01/01 11:07:56;;;;;;;49.58;39.10;;;;;;;9.76;70.57;99646.69;5013929;28;20581;-81
2022/01/01 11:10:23;;;;;;;51.33;39.85;;;;;;;10.42;71.14;99751.84;5014156;28;20141;-81
2022/01/01 11:12:50;;;;;;;54.20;42.97;;;;;;;10.30;70.78;99733.88;5014082;28;20026;-82
2022/01/01 11:15:16;;;;;;;53.50;40.80;;;;;;;10.21;70.75;99706.69;5014118;28;20088;-81
2022/01/01 11:17:43;;;;;;;42.92;34.83;;;;;;;10.19;70.70;99691.00;5014069;28;20022;-80
2022/01/01 11:20:09;;;;;;;38.50;32.63;;;;;;;9.52;70.67;99587.75;4996186;28;20022;-81
2022/01/01 11:22:35;;;;;;;39.08;31.98;;;;;;;10.66;70.49;99755.34;5013981;28;20718;-81